Notice: Undefined index: language in /var/www/vam/vam/index.php on line 25

 Air Côte d'Ivoire Virtuel



 METAR AND TAF INFORMATION
METAR FOR DIAP
ADDS - METARS form results

(2123 UTC 17 June 2019)
Data provider http://aviationweather.gov/metar/data/
 
METAR text: DIAP 172100Z 23006KT CAVOK 26/25 Q1014 NOSIG
Conditions at: DIAP (ABIDJAN/PORT BOU, CI) observed 2100 UTC 17 June 2019
Temperature: 26.0°C (79°F)
Dewpoint: 25.0°C (77°F) [RH = 94%]
Pressure (altimeter): 29.94 inches Hg (1014.0 mb)
Winds: from the SW (230 degrees) at 7 MPH (6 knots; 3.1 m/s)
Visibility: 6 or more miles (10+ km)
Ceiling: ceiling and visibility are OK
Clouds: unknown
Weather: no significant weather observed at this time

METAR text: DIAP 172030Z 23005KT CAVOK 26/25 Q1014 NOSIG
Conditions at: DIAP (ABIDJAN/PORT BOU, CI) observed 2030 UTC 17 June 2019
Temperature: 26.0°C (79°F)
Dewpoint: 25.0°C (77°F) [RH = 94%]
Pressure (altimeter): 29.94 inches Hg (1014.0 mb)
Winds: from the SW (230 degrees) at 6 MPH (5 knots; 2.6 m/s)
Visibility: 6 or more miles (10+ km)
Ceiling: ceiling and visibility are OK
Clouds: unknown
Weather: no significant weather observed at this time

Forecast for: AMD
Text: TAF AMD DIAP 172000Z 1720/1824 23005KT 9999 FEW015
Forecast period: 2000 UTC 17 June 2019 to 0000 UTC 19 June 2019
Forecast type: FROM: standard forecast or significant change
Winds: from the SW (230 degrees) at 6 MPH (5 knots; 2.6 m/s)
Visibility: 6 or more miles 10+ km)
Ceiling: at least 12,000 feet AGL
Clouds: few clouds at 1500 feet AGL
Weather: no significant weather forecast for this period
Text: TEMPO 1803/1809 BKN011 BKN040
Forecast period: 0300 to 0900 UTC 18 June 2019
Forecast type: TEMPORARY: The following changes expected for less than half the time period
Visibility: missing
Ceiling: 1100 feet AGL
Clouds: broken clouds at 1100 feet AGL
broken clouds at 4000 feet AGL
Weather: no significant weather forecast for this period
Text: TEMPO 1804/1818 4000 RA BKN010 BKN030
Forecast period: 0400 to 1800 UTC 18 June 2019
Forecast type: TEMPORARY: The following changes expected for less than half the time period
Visibility: 2.49 miles (4.01 km)
Ceiling: 1000 feet AGL
Clouds: broken clouds at 1000 feet AGL
broken clouds at 3000 feet AGL
Weather: RA  (moderate rain)

 AIRPORT MAP

 RUNWAY INFORMATION
Runway 03 Runway length 9843 ft Runway width 164 ft
Runway elevation 21 ft Runway displaced threshold 0 ft Runway heading 23
Runway 21 Runway length 9843 ft Runway width 164 ft
Runway elevation 11 ft Runway displaced threshold 0 ft Runway heading 203

 AIRPORT FREQUENCIES
Type A/G Name RDO Frequency 568 MHZ
Type ACC Name CON Frequency 121.1 MHZ
Type AFIS Name INFO Frequency 129.1 MHZ
Type ATIS Name ATIS Frequency 126.6 MHZ
Type MISC Name VHF/DF Frequency 118.1 MHZ
Type TWR Name TWR Frequency 118.1 MHZ

 AIRPORT NEAR NAVIGATION AIDS
Type VOR-DME Name Abidjan Frequency 114300 KHZ
Type NDB Name Abidjan Frequency 306 KHZ
Type NDB Name Abidjan Felix Houphouet Boigny Frequency 294 KHZ